createdAt,value
2018-12-16T00:02:16.204Z,103.27
2018-12-16T00:04:55.415Z,122.47
2018-12-16T00:07:35.059Z,89.93
2018-12-16T00:10:14.800Z,108.77
2018-12-16T00:12:53.459Z,118.30
2018-12-16T00:15:33.551Z,120.03
2018-12-16T00:18:12.273Z,111.37
2018-12-16T00:20:52.369Z,121.70
2018-12-16T00:23:34.650Z,110.60
2018-12-16T00:26:15.598Z,84.70
2018-12-16T00:28:56.857Z,113.70
2018-12-16T00:31:38.648Z,119.83
2018-12-16T00:34:20.218Z,120.20
2018-12-16T00:37:02.118Z,125.23
2018-12-16T00:39:41.567Z,103.43
2018-12-16T00:42:21.000Z,117.70
2018-12-16T00:45:00.228Z,113.83
2018-12-16T00:47:41.391Z,112.83
2018-12-16T00:50:25.817Z,109.73
2018-12-16T00:53:09.341Z,87.90
2018-12-16T00:55:52.838Z,133.63
2018-12-16T00:58:35.175Z,116.77
2018-12-16T01:01:14.373Z,107.50
2018-12-16T01:03:53.286Z,115.37
2018-12-16T01:06:32.577Z,110.73
2018-12-16T01:09:12.370Z,125.57
2018-12-16T01:11:56.392Z,99.20
2018-12-16T01:14:35.773Z,122.03
2018-12-16T01:17:16.967Z,100.43
2018-12-16T01:19:57.423Z,110.97
2018-12-16T01:22:34.528Z,104.47
2018-12-16T01:27:47.174Z,111.37
2018-12-16T01:30:29.738Z,126.80
2018-12-16T01:33:14.172Z,107.33
2018-12-16T01:35:57.401Z,90.30
2018-12-16T01:38:37.238Z,108.23
2018-12-16T01:41:14.277Z,113.37
2018-12-16T01:43:51.738Z,108.47
2018-12-16T01:46:31.404Z,116.93
2018-12-16T01:49:11.722Z,113.73
2018-12-16T01:51:49.006Z,120.97
2018-12-16T01:54:30.775Z,120.57
2018-12-16T01:57:12.470Z,117.00
2018-12-16T01:59:49.183Z,130.00
2018-12-16T02:02:27.713Z,110.33
2018-12-16T02:05:06.318Z,117.43
2018-12-16T02:07:45.729Z,103.87
2018-12-16T02:10:25.697Z,107.13
2018-12-16T02:13:05.714Z,118.60
2018-12-16T02:15:47.329Z,105.03
2018-12-16T02:18:21.949Z,88.33
2018-12-16T02:21:03.435Z,100.10
2018-12-16T02:23:44.187Z,108.40
2018-12-16T02:26:28.057Z,109.77
2018-12-16T02:29:07.485Z,114.27
2018-12-16T02:31:47.659Z,113.97
2018-12-16T02:34:23.223Z,111.73
2018-12-16T02:37:01.712Z,109.47
2018-12-16T02:39:41.032Z,111.87
2018-12-16T02:42:23.756Z,100.00
2018-12-16T02:45:05.264Z,110.80
2018-12-16T02:47:42.156Z,111.63
2018-12-16T02:50:20.458Z,109.37
2018-12-16T02:53:07.760Z,100.73
2018-12-16T02:55:49.345Z,96.33
2018-12-16T02:58:31.512Z,113.17
2018-12-16T03:01:07.333Z,101.60
2018-12-16T03:03:47.466Z,96.77
2018-12-16T03:06:30.558Z,109.10
2018-12-16T03:09:13.798Z,96.80
2018-12-16T03:11:53.863Z,107.80
2018-12-16T03:14:36.900Z,102.17
2018-12-16T03:17:18.599Z,99.13
2018-12-16T03:19:55.805Z,102.03
2018-12-16T03:22:34.650Z,105.73
2018-12-16T03:25:14.607Z,96.27
2018-12-16T03:27:54.056Z,80.87
2018-12-16T03:30:34.598Z,88.33
2018-12-16T03:33:18.376Z,87.07
2018-12-16T03:35:59.463Z,98.27
2018-12-16T03:38:38.771Z,80.17
2018-12-16T03:41:20.887Z,76.93
2018-12-16T03:44:03.305Z,84.40
2018-12-16T03:46:43.219Z,78.77
2018-12-16T03:49:16.386Z,81.40
2018-12-16T03:51:57.382Z,79.40
2018-12-16T03:54:38.774Z,68.87
2018-12-16T03:57:16.857Z,73.90
2018-12-16T03:59:55.546Z,68.57
2018-12-16T04:02:34.897Z,72.83
2018-12-16T04:05:17.209Z,65.43
2018-12-16T04:07:58.336Z,57.57
2018-12-16T04:10:39.571Z,61.47
2018-12-16T04:13:19.555Z,64.90
2018-12-16T04:15:57.368Z,54.47
2018-12-16T04:18:34.968Z,62.40
2018-12-16T04:21:12.037Z,61.50
2018-12-16T04:23:53.092Z,50.40
2018-12-16T04:26:34.997Z,54.90
2018-12-16T04:29:15.111Z,68.13
2018-12-16T04:31:57.816Z,58.83
2018-12-16T04:34:39.233Z,48.13
2018-12-16T04:37:18.562Z,55.60
2018-12-16T04:39:58.188Z,52.47
2018-12-16T04:42:41.837Z,52.03
2018-12-16T04:45:21.423Z,53.83
2018-12-16T04:48:03.085Z,60.27
2018-12-16T04:50:44.969Z,55.43
2018-12-16T04:53:17.525Z,51.27
2018-12-16T04:55:57.986Z,49.77
2018-12-16T04:58:39.370Z,46.80
2018-12-16T05:01:17.201Z,44.20
2018-12-16T05:03:58.300Z,44.43
2018-12-16T05:06:38.514Z,42.77
2018-12-16T05:09:20.853Z,45.63
2018-12-16T05:12:02.425Z,46.97
2018-12-16T05:14:43.071Z,38.13
2018-12-16T05:17:22.995Z,47.17
2018-12-16T05:20:00.647Z,48.07
2018-12-16T05:22:41.829Z,50.00
2018-12-16T05:25:22.357Z,46.27
2018-12-16T05:28:02.195Z,40.23
2018-12-16T05:30:43.152Z,53.93
2018-12-16T05:33:24.362Z,49.70
2018-12-16T05:36:11.979Z,52.37
2018-12-16T05:38:49.740Z,43.03
2018-12-16T05:41:31.642Z,44.33
2018-12-16T05:44:13.040Z,46.17
2018-12-16T05:46:53.852Z,45.00
2018-12-16T05:49:35.849Z,43.73
2018-12-16T05:52:10.287Z,45.10
2018-12-16T05:54:49.958Z,41.07
2018-12-16T05:57:33.069Z,44.83
2018-12-16T06:00:11.062Z,45.33
2018-12-16T06:02:52.698Z,41.33
2018-12-16T06:05:36.464Z,43.83
2018-12-16T06:08:16.959Z,49.93
2018-12-16T06:10:56.840Z,44.90
2018-12-16T06:13:37.442Z,43.17
2018-12-16T06:16:19.906Z,46.97
2018-12-16T06:18:55.718Z,46.33
2018-12-16T06:21:35.739Z,44.53
2018-12-16T06:24:17.125Z,47.30
2018-12-16T06:26:59.345Z,34.97
2018-12-16T06:29:39.142Z,34.03
2018-12-16T06:32:19.175Z,43.00
2018-12-16T06:35:01.442Z,36.80
2018-12-16T06:37:42.266Z,27.63
2018-12-16T06:40:21.907Z,35.93
2018-12-16T06:43:00.565Z,43.17
2018-12-16T06:45:42.053Z,46.70
2018-12-16T06:48:24.305Z,41.00
2018-12-16T06:51:05.836Z,36.87
2018-12-16T06:53:46.005Z,37.43
2018-12-16T06:56:24.943Z,29.67
2018-12-16T06:59:07.194Z,42.33
2018-12-16T07:01:44.510Z,41.77
2018-12-16T07:04:25.315Z,30.93
2018-12-16T07:07:05.830Z,39.63
2018-12-16T07:09:45.720Z,25.43
2018-12-16T07:12:24.163Z,42.63
2018-12-16T07:15:06.627Z,38.90
2018-12-16T07:17:49.621Z,36.97
2018-12-16T07:20:31.813Z,37.43
2018-12-16T07:23:14.250Z,36.77
2018-12-16T07:25:54.128Z,37.67
2018-12-16T07:28:34.088Z,36.60
2018-12-16T07:31:13.501Z,42.53
2018-12-16T07:33:46.377Z,35.80
2018-12-16T07:36:22.269Z,35.53
2018-12-16T07:39:01.761Z,36.67
2018-12-16T07:41:39.558Z,37.57
2018-12-16T07:44:17.542Z,34.20
2018-12-16T07:46:57.791Z,34.90
2018-12-16T07:49:36.583Z,38.73
2018-12-16T07:52:16.212Z,37.40
2018-12-16T07:55:01.556Z,32.37
2018-12-16T07:57:39.041Z,35.33
2018-12-16T08:00:16.891Z,43.60
2018-12-16T08:02:56.212Z,36.67
2018-12-16T08:05:32.955Z,31.20
2018-12-16T08:08:10.032Z,37.80
2018-12-16T08:10:45.064Z,41.53
2018-12-16T08:13:20.733Z,42.67
2018-12-16T08:15:58.351Z,37.47
2018-12-16T08:18:31.412Z,35.57
2018-12-16T08:21:08.796Z,36.90
2018-12-16T08:23:42.032Z,38.50
2018-12-16T08:26:14.874Z,36.17
2018-12-16T08:28:48.062Z,32.87
2018-12-16T08:31:21.319Z,25.30
2018-12-16T08:33:54.502Z,40.67
2018-12-16T08:36:27.762Z,31.80
2018-12-16T08:39:01.259Z,33.60
2018-12-16T08:41:34.510Z,41.03
2018-12-16T08:44:07.718Z,36.43
2018-12-16T08:46:40.996Z,42.53
2018-12-16T08:49:14.651Z,39.07
2018-12-16T08:51:47.831Z,31.37
2018-12-16T08:54:21.057Z,38.10
2018-12-16T08:56:54.222Z,38.67
2018-12-16T08:59:27.465Z,37.77
2018-12-16T09:02:00.650Z,42.40
2018-12-16T09:04:33.835Z,39.83
2018-12-16T09:07:07.910Z,41.90
2018-12-16T09:09:41.347Z,35.10
2018-12-16T09:12:14.574Z,40.57
2018-12-16T09:14:47.733Z,42.30
2018-12-16T09:17:25.881Z,35.80
2018-12-16T09:20:06.097Z,36.60
2018-12-16T09:22:46.995Z,38.47
2018-12-16T09:25:21.302Z,31.50
2018-12-16T09:28:01.751Z,30.30
2018-12-16T09:30:42.188Z,34.20
2018-12-16T09:33:22.974Z,33.00
2018-12-16T09:36:03.593Z,33.73
2018-12-16T09:38:43.046Z,37.03
2018-12-16T09:41:26.055Z,34.33
2018-12-16T09:44:07.017Z,28.53
2018-12-16T09:46:49.509Z,30.43
2018-12-16T09:49:25.506Z,37.47
2018-12-16T09:52:05.395Z,32.80
2018-12-16T09:54:44.161Z,31.57
2018-12-16T09:57:28.883Z,36.40
2018-12-16T10:00:02.611Z,30.57
2018-12-16T10:02:40.176Z,32.70
2018-12-16T10:05:18.767Z,31.30
2018-12-16T10:07:57.287Z,32.50
2018-12-16T10:10:36.799Z,27.63
2018-12-16T10:13:12.914Z,33.50
2018-12-16T10:15:52.210Z,31.17
2018-12-16T10:18:30.772Z,35.77
2018-12-16T10:21:04.433Z,31.27
2018-12-16T10:23:37.157Z,33.53
2018-12-16T10:26:10.261Z,31.17
2018-12-16T10:28:43.401Z,32.30
2018-12-16T10:31:16.542Z,34.67
2018-12-16T10:33:49.606Z,41.50
2018-12-16T10:36:22.553Z,31.00
2018-12-16T10:38:55.698Z,33.17
2018-12-16T10:41:29.675Z,29.63
2018-12-16T10:44:05.336Z,36.60
2018-12-16T10:46:40.911Z,29.27
2018-12-16T10:49:14.317Z,40.63
2018-12-16T10:51:46.789Z,33.17
2018-12-16T10:54:25.329Z,29.83
2018-12-16T10:57:06.105Z,35.37
2018-12-16T10:59:43.427Z,24.53
2018-12-16T11:02:18.304Z,38.13
2018-12-16T11:04:57.039Z,31.13
2018-12-16T11:07:35.808Z,37.37
2018-12-16T11:10:11.583Z,31.77
2018-12-16T11:12:49.149Z,33.43
2018-12-16T11:15:28.153Z,29.60
2018-12-16T11:18:05.821Z,32.33
2018-12-16T11:20:44.600Z,28.30
2018-12-16T11:23:26.001Z,29.93
2018-12-16T11:25:59.780Z,31.00
2018-12-16T11:28:39.026Z,31.53
2018-12-16T11:31:17.813Z,23.50
2018-12-16T11:33:58.066Z,33.90
2018-12-16T11:36:32.107Z,32.33
2018-12-16T11:39:05.599Z,29.37
2018-12-16T11:41:43.837Z,29.23
2018-12-16T11:44:21.155Z,32.23
2018-12-16T11:46:58.122Z,29.17
2018-12-16T11:49:33.207Z,34.13
2018-12-16T11:52:11.164Z,21.23
2018-12-16T11:54:46.843Z,29.73
2018-12-16T11:57:23.811Z,21.57
2018-12-16T12:00:03.117Z,25.17
2018-12-16T12:02:39.142Z,28.93
2018-12-16T12:05:12.090Z,24.57
2018-12-16T12:07:49.366Z,26.27
2018-12-16T12:10:22.450Z,28.33
2018-12-16T12:12:57.131Z,23.37
2018-12-16T12:15:32.828Z,23.53
2018-12-16T12:18:08.473Z,26.13
2018-12-16T12:20:47.129Z,28.77
2018-12-16T12:23:22.546Z,25.30
2018-12-16T12:26:01.357Z,22.60
2018-12-16T12:28:38.312Z,22.70
2018-12-16T12:31:17.302Z,23.37
2018-12-16T12:33:51.482Z,27.97
2018-12-16T12:36:28.574Z,32.13
2018-12-16T12:39:01.725Z,20.37
2018-12-16T12:41:41.010Z,25.23
2018-12-16T12:44:20.974Z,25.57
2018-12-16T12:46:58.565Z,21.77
2018-12-16T12:49:36.523Z,24.63
2018-12-16T12:52:12.504Z,23.40
2018-12-16T12:54:49.232Z,26.77
2018-12-16T12:57:25.909Z,25.10
2018-12-16T13:00:03.689Z,24.83
2018-12-16T13:02:39.979Z,17.20
2018-12-16T13:05:12.336Z,26.00
2018-12-16T13:07:46.106Z,38.33
2018-12-16T13:10:18.432Z,22.33
2018-12-16T13:12:50.592Z,26.60
2018-12-16T13:15:27.288Z,20.63
2018-12-16T13:18:01.495Z,22.83
2018-12-16T13:20:34.044Z,26.20
2018-12-16T13:23:12.117Z,22.10
2018-12-16T13:25:59.173Z,33.40
2018-12-16T13:28:34.938Z,29.83
2018-12-16T13:31:10.095Z,27.63
2018-12-16T13:33:48.705Z,25.53
2018-12-16T13:36:22.700Z,28.87
2018-12-16T13:38:57.587Z,24.33
2018-12-16T13:41:34.533Z,23.37
2018-12-16T13:44:11.434Z,25.03
2018-12-16T13:46:48.440Z,29.70
2018-12-16T13:49:25.177Z,27.00
2018-12-16T13:52:01.765Z,31.97
2018-12-16T13:54:37.755Z,31.50
2018-12-16T13:57:13.733Z,29.63
2018-12-16T13:59:48.067Z,31.10
2018-12-16T14:02:25.408Z,25.93
2018-12-16T14:05:01.274Z,26.37
2018-12-16T14:07:39.499Z,31.30
2018-12-16T14:10:18.265Z,26.73
2018-12-16T14:12:56.769Z,29.30
2018-12-16T14:15:33.748Z,27.57
2018-12-16T14:18:09.115Z,30.50
2018-12-16T14:20:44.787Z,29.97
2018-12-16T14:23:18.674Z,26.63
2018-12-16T14:25:53.151Z,25.07
2018-12-16T14:28:30.604Z,29.30
2018-12-16T14:31:08.454Z,27.57
2018-12-16T14:33:43.600Z,28.53
2018-12-16T14:36:20.473Z,28.53
2018-12-16T14:38:59.503Z,28.90
2018-12-16T14:41:35.958Z,26.47
2018-12-16T14:44:14.151Z,27.90
2018-12-16T14:46:50.982Z,29.07
2018-12-16T14:49:28.824Z,29.17
2018-12-16T14:52:07.589Z,27.83
2018-12-16T14:54:41.854Z,27.70
2018-12-16T14:57:19.566Z,26.17
2018-12-16T14:59:57.362Z,26.90
2018-12-16T15:02:33.304Z,32.40
2018-12-16T15:05:11.353Z,28.47
2018-12-16T15:07:49.232Z,30.33
2018-12-16T15:10:25.461Z,30.03
2018-12-16T15:13:01.094Z,29.03
2018-12-16T15:15:36.546Z,33.27
2018-12-16T15:18:12.442Z,30.13
2018-12-16T15:20:49.014Z,27.47
2018-12-16T15:23:25.569Z,32.90
2018-12-16T15:26:03.396Z,28.27
2018-12-16T15:28:38.802Z,25.20
2018-12-16T15:31:11.900Z,28.50
2018-12-16T15:33:48.758Z,30.30
2018-12-16T15:36:25.017Z,31.53
2018-12-16T15:38:59.094Z,30.80
2018-12-16T15:41:33.474Z,35.67
2018-12-16T15:44:08.461Z,36.53
2018-12-16T15:46:41.800Z,32.67
2018-12-16T15:49:14.500Z,32.87
2018-12-16T15:51:48.468Z,37.03
2018-12-16T15:54:26.648Z,30.83
2018-12-16T15:57:02.421Z,30.70
2018-12-16T15:59:38.191Z,31.53
2018-12-16T16:02:14.592Z,35.33
2018-12-16T16:04:47.617Z,37.00
2018-12-16T16:07:20.782Z,35.43
2018-12-16T16:09:55.119Z,32.33
2018-12-16T16:12:31.723Z,33.07
2018-12-16T16:15:08.641Z,33.03
2018-12-16T16:17:44.055Z,32.03
2018-12-16T16:20:21.186Z,39.60
2018-12-16T16:22:59.194Z,33.37
2018-12-16T16:25:36.700Z,34.00
2018-12-16T16:28:14.416Z,28.70
2018-12-16T16:30:54.497Z,35.33
2018-12-16T16:33:37.467Z,30.40
2018-12-16T16:36:14.420Z,34.93
2018-12-16T16:38:48.793Z,33.33
2018-12-16T16:41:23.668Z,35.67
2018-12-16T16:44:04.478Z,35.90
2018-12-16T16:46:44.716Z,35.47
2018-12-16T16:49:23.866Z,33.43
2018-12-16T16:52:02.439Z,31.97
2018-12-16T16:54:37.377Z,34.53
2018-12-16T16:57:09.896Z,39.80
2018-12-16T16:59:44.390Z,30.17
2018-12-16T17:02:18.292Z,31.20
2018-12-16T17:04:53.014Z,32.10
2018-12-16T17:07:30.053Z,34.47
2018-12-16T17:10:06.022Z,36.67
2018-12-16T17:12:42.726Z,34.67
2018-12-16T17:15:17.711Z,33.10
2018-12-16T17:17:52.419Z,35.83
2018-12-16T17:20:28.645Z,35.30
2018-12-16T17:25:37.186Z,39.20
2018-12-16T17:28:11.940Z,44.67
2018-12-16T17:30:49.613Z,36.60
2018-12-16T17:33:23.466Z,37.20
2018-12-16T17:35:56.749Z,33.97
2018-12-16T17:38:33.255Z,34.93
2018-12-16T17:41:05.587Z,45.77
2018-12-16T17:43:41.118Z,35.60
2018-12-16T17:46:13.686Z,40.07
2018-12-16T17:48:46.714Z,37.47
2018-12-16T17:51:19.484Z,37.57
2018-12-16T17:53:56.874Z,41.07
2018-12-16T17:56:29.295Z,39.93
2018-12-16T17:59:01.697Z,40.43
2018-12-16T18:01:36.588Z,38.90
2018-12-16T18:04:10.415Z,39.17
2018-12-16T18:06:44.742Z,48.80
2018-12-16T18:09:17.579Z,43.47
2018-12-16T18:11:50.485Z,40.90
2018-12-16T18:14:23.320Z,39.43
2018-12-16T18:16:57.324Z,38.03
2018-12-16T18:19:30.108Z,39.23
2018-12-16T18:22:02.927Z,40.00
2018-12-16T18:24:35.634Z,35.07
2018-12-16T18:27:09.225Z,39.43
2018-12-16T18:29:42.295Z,46.70
2018-12-16T18:32:15.061Z,39.10
2018-12-16T18:34:47.819Z,39.70
2018-12-16T18:37:20.508Z,40.00
2018-12-16T18:39:53.231Z,36.60
2018-12-16T18:42:26.019Z,41.33
2018-12-16T18:44:58.962Z,39.67
2018-12-16T18:47:31.891Z,41.97
2018-12-16T18:50:06.164Z,44.37
2018-12-16T18:52:39.501Z,40.53
2018-12-16T18:55:13.558Z,38.63
2018-12-16T18:57:50.324Z,43.93
2018-12-16T19:00:29.922Z,37.07
2018-12-16T19:03:07.365Z,42.67
2018-12-16T19:05:44.438Z,42.27
2018-12-16T19:08:19.841Z,39.77
2018-12-16T19:10:57.670Z,43.20
2018-12-16T19:13:36.981Z,43.63
2018-12-16T19:16:14.143Z,33.33
2018-12-16T19:18:51.321Z,43.17
2018-12-16T19:21:27.521Z,45.57
2018-12-16T19:24:01.978Z,41.20
2018-12-16T19:29:17.847Z,29.37
2018-12-16T19:31:56.381Z,40.17
2018-12-16T19:34:33.930Z,41.97
2018-12-16T19:37:09.894Z,43.03
2018-12-16T19:39:43.291Z,48.37
2018-12-16T19:42:17.374Z,43.20
2018-12-16T19:44:52.973Z,41.10
2018-12-16T19:47:27.784Z,39.03
2018-12-16T19:50:07.703Z,40.43
2018-12-16T19:52:45.636Z,44.03
2018-12-16T19:55:25.461Z,44.73
2018-12-16T19:58:03.880Z,46.67
2018-12-16T20:00:39.807Z,48.80
2018-12-16T20:03:17.042Z,48.03
2018-12-16T20:05:57.744Z,47.03
2018-12-16T20:08:38.392Z,45.37
2018-12-16T20:11:16.295Z,43.00
2018-12-16T20:13:55.692Z,52.77
2018-12-16T20:16:35.210Z,47.67
2018-12-16T20:19:10.729Z,46.90
2018-12-16T20:21:50.571Z,56.23
2018-12-16T20:24:28.005Z,47.27
2018-12-16T20:27:12.027Z,47.53
2018-12-16T20:29:48.027Z,46.77
2018-12-16T20:32:21.918Z,51.20
2018-12-16T20:35:00.420Z,51.93
2018-12-16T20:37:40.074Z,51.93
2018-12-16T20:40:16.931Z,47.27
2018-12-16T20:42:56.196Z,53.47
2018-12-16T20:45:31.036Z,54.83
2018-12-16T20:48:09.236Z,57.13
2018-12-16T20:50:45.709Z,50.43
2018-12-16T20:53:25.593Z,47.57
2018-12-16T20:56:02.252Z,51.07
2018-12-16T20:58:42.185Z,52.90
2018-12-16T21:01:18.085Z,51.47
2018-12-16T21:03:55.606Z,55.27
2018-12-16T21:06:30.741Z,53.20
2018-12-16T21:09:06.438Z,52.33
2018-12-16T21:11:47.350Z,54.83
2018-12-16T21:14:27.773Z,50.10
2018-12-16T21:17:08.801Z,54.07
2018-12-16T21:19:46.205Z,55.57
2018-12-16T21:22:21.534Z,52.73
2018-12-16T21:25:01.309Z,63.43
2018-12-16T21:27:40.661Z,58.07
2018-12-16T21:30:20.157Z,52.00
2018-12-16T21:32:56.647Z,58.37
2018-12-16T21:35:32.264Z,55.43
2018-12-16T21:38:08.569Z,56.60
2018-12-16T21:40:45.345Z,58.23
2018-12-16T21:43:22.619Z,57.20
2018-12-16T21:46:02.478Z,59.70
2018-12-16T21:48:37.462Z,61.67
2018-12-16T21:51:11.822Z,58.40
2018-12-16T21:53:50.636Z,59.63
2018-12-16T21:56:28.185Z,60.83
2018-12-16T21:59:05.889Z,58.97
2018-12-16T22:01:42.366Z,62.57
2018-12-16T22:04:20.001Z,63.67
2018-12-16T22:06:55.698Z,59.07
2018-12-16T22:09:32.178Z,65.17
2018-12-16T22:12:14.506Z,65.90
2018-12-16T22:14:49.627Z,64.43
2018-12-16T22:17:27.196Z,70.47
2018-12-16T22:19:59.771Z,58.97
2018-12-16T22:22:36.925Z,61.97
2018-12-16T22:25:13.092Z,69.90
2018-12-16T22:27:53.945Z,67.53
2018-12-16T22:30:30.664Z,70.83
2018-12-16T22:33:05.666Z,63.13
2018-12-16T22:35:41.199Z,64.63
2018-12-16T22:38:15.670Z,79.17
2018-12-16T22:40:54.805Z,69.60
2018-12-16T22:43:31.164Z,63.57
2018-12-16T22:46:10.958Z,69.07
2018-12-16T22:48:48.164Z,71.17
2018-12-16T22:51:30.250Z,65.57
2018-12-16T22:54:11.767Z,71.23
2018-12-16T22:56:54.912Z,67.70
2018-12-16T22:59:35.180Z,67.63
2018-12-16T23:02:15.666Z,65.83
2018-12-16T23:04:54.019Z,61.50
2018-12-16T23:07:33.868Z,72.50
2018-12-16T23:10:12.364Z,71.10
2018-12-16T23:12:54.732Z,66.10
2018-12-16T23:15:36.070Z,67.27
2018-12-16T23:18:18.822Z,75.17
2018-12-16T23:20:59.732Z,63.83
2018-12-16T23:23:38.645Z,67.17
2018-12-16T23:26:18.889Z,64.33
2018-12-16T23:29:02.422Z,68.93
2018-12-16T23:31:40.226Z,72.67
2018-12-16T23:34:18.609Z,74.10
2018-12-16T23:36:57.874Z,72.70
2018-12-16T23:39:36.797Z,72.37
2018-12-16T23:42:18.094Z,64.27
2018-12-16T23:44:55.293Z,70.23
2018-12-16T23:47:35.639Z,72.53
2018-12-16T23:50:19.757Z,73.67
2018-12-16T23:53:00.328Z,77.63
2018-12-16T23:55:39.781Z,74.27
2018-12-16T23:58:19.750Z,75.60
